Terminal Aerodrome Forecast
Issued by NWS

Current Version | Previous Version | Text Only | Print | Product List | Glossary Off
Versions: 1 2 3 4 5 6 7 8 9 10 11 12 13 14 15 16

000
FTUS41 KRNK 132321
TAFLWB
TAF
KLWB 132321Z 1400/1424 20007KT P6SM -SN OVC050
     FM140500 26010G20KT P6SM -SN BKN025
      TEMPO 1405/1409 4SM -SHSN OVC015
     FM140900 27012G22KT P6SM OVC025 WS020/28040KT
     FM141100 27013G26KT P6SM BKN025
     FM141400 30013G23KT P6SM BKN040=

USA.gov is the U.S. government's official web portal to all federal, state and local government web resources and services.